createdAt,value
2019-01-04T00:01:38.126Z,-1.20
2019-01-04T00:04:10.221Z,-1.30
2019-01-04T00:06:39.981Z,-1.30
2019-01-04T00:09:09.646Z,-1.40
2019-01-04T00:11:39.698Z,-1.40
2019-01-04T00:14:09.316Z,-1.50
2019-01-04T00:16:39.126Z,-1.50
2019-01-04T00:19:08.833Z,-1.60
2019-01-04T00:21:38.578Z,-1.60
2019-01-04T00:24:08.265Z,-1.50
2019-01-04T00:26:38.021Z,-1.50
2019-01-04T00:29:07.758Z,-1.60
2019-01-04T00:31:37.482Z,-1.60
2019-01-04T00:34:07.268Z,-1.50
2019-01-04T00:36:36.974Z,-1.50
2019-01-04T00:39:07.298Z,-1.50
2019-01-04T00:41:37.050Z,-1.60
2019-01-04T00:44:06.697Z,-1.60
2019-01-04T00:46:36.357Z,-1.60
2019-01-04T00:49:06.045Z,-1.60
2019-01-04T00:51:35.742Z,-1.60
2019-01-04T00:54:05.606Z,-1.50
2019-01-04T00:57:14.529Z,-1.50
2019-01-04T01:00:14.280Z,-1.50
2019-01-04T01:03:31.771Z,-1.40
2019-01-04T01:06:40.970Z,-1.40
2019-01-04T01:09:32.367Z,-1.50
2019-01-04T01:12:42.210Z,-1.50
2019-01-04T01:15:47.002Z,-1.50
2019-01-04T01:19:03.712Z,-1.40
2019-01-04T01:22:38.457Z,-1.40
2019-01-04T01:26:10.193Z,-1.50
2019-01-04T01:29:19.106Z,-1.50
2019-01-04T01:31:59.125Z,-1.50
2019-01-04T01:35:18.634Z,-1.50
2019-01-04T01:38:42.973Z,-1.50
2019-01-04T01:41:50.804Z,-1.50
2019-01-04T01:45:07.833Z,-1.50
2019-01-04T01:47:48.132Z,-1.50
2019-01-04T01:50:59.243Z,-1.50
2019-01-04T01:53:47.026Z,-1.60
2019-01-04T01:56:16.912Z,-1.50
2019-01-04T01:58:46.600Z,-1.50
2019-01-04T02:01:16.236Z,-1.50
2019-01-04T02:03:46.329Z,-1.50
2019-01-04T02:06:16.121Z,-1.50
2019-01-04T02:08:45.964Z,-1.50
2019-01-04T02:11:15.638Z,-1.50
2019-01-04T02:13:45.249Z,-1.50
2019-01-04T02:16:14.904Z,-1.50
2019-01-04T02:18:44.570Z,-1.40
2019-01-04T02:21:14.284Z,-1.50
2019-01-04T02:23:44.130Z,-1.50
2019-01-04T02:26:13.758Z,-1.50
2019-01-04T02:28:43.505Z,-1.60
2019-01-04T02:31:13.148Z,-1.60
2019-01-04T02:33:42.871Z,-1.60
2019-01-04T02:36:12.598Z,-1.60
2019-01-04T02:38:42.382Z,-1.60
2019-01-04T02:41:12.045Z,-1.60
2019-01-04T02:43:41.778Z,-1.60
2019-01-04T02:46:11.440Z,-1.60
2019-01-04T02:48:41.178Z,-1.60
2019-01-04T02:51:11.045Z,-1.70
2019-01-04T02:53:40.732Z,-1.70
2019-01-04T02:56:10.477Z,-1.60
2019-01-04T02:58:40.210Z,-1.70
2019-01-04T03:01:10.100Z,-1.60
2019-01-04T03:03:39.764Z,-1.50
2019-01-04T03:06:11.768Z,-1.50
2019-01-04T03:08:41.449Z,-1.50
2019-01-04T03:11:11.204Z,-1.50
2019-01-04T03:13:41.022Z,-1.50
2019-01-04T03:16:10.806Z,-1.40
2019-01-04T03:18:40.488Z,-1.40
2019-01-04T03:21:10.109Z,-1.30
2019-01-04T03:23:39.777Z,-1.30
2019-01-04T03:26:09.417Z,-1.30
2019-01-04T03:28:39.230Z,-1.30
2019-01-04T03:31:08.934Z,-1.30
2019-01-04T03:33:38.658Z,-1.30
2019-01-04T03:36:08.491Z,-1.30
2019-01-04T03:38:38.752Z,-1.30
2019-01-04T03:41:08.522Z,-1.30
2019-01-04T03:43:38.202Z,-1.30
2019-01-04T03:46:08.332Z,-1.30
2019-01-04T03:48:38.096Z,-1.30
2019-01-04T03:51:07.928Z,-1.20
2019-01-04T03:53:37.890Z,-1.20
2019-01-04T03:56:07.773Z,-1.20
2019-01-04T03:58:37.491Z,-1.20
2019-01-04T04:01:09.245Z,-1.30
2019-01-04T04:03:38.984Z,-1.30
2019-01-04T04:06:08.793Z,-1.30
2019-01-04T04:08:38.521Z,-1.20
2019-01-04T04:11:08.242Z,-1.30
2019-01-04T04:13:38.037Z,-1.30
2019-01-04T04:16:07.833Z,-1.20
2019-01-04T04:18:37.596Z,-1.10
2019-01-04T04:21:07.290Z,-1.00
2019-01-04T04:23:36.964Z,-1.00
2019-01-04T04:26:06.736Z,-1.00
2019-01-04T04:28:36.518Z,-1.00
2019-01-04T04:31:06.283Z,-1.00
2019-01-04T04:33:36.012Z,-0.90
2019-01-04T04:36:05.687Z,-0.90
2019-01-04T04:38:35.303Z,-0.90
2019-01-04T04:41:05.032Z,-1.00
2019-01-04T04:43:34.808Z,-1.00
2019-01-04T04:46:04.569Z,-1.10
2019-01-04T04:48:34.196Z,-1.20
2019-01-04T04:51:03.904Z,-1.20
2019-01-04T04:53:33.673Z,-1.20
2019-01-04T04:56:03.422Z,-1.20
2019-01-04T04:58:33.233Z,-1.20
2019-01-04T05:01:02.934Z,-1.30
2019-01-04T05:03:32.584Z,-1.30
2019-01-04T05:06:02.265Z,-1.30
2019-01-04T05:08:32.069Z,-1.30
2019-01-04T05:11:01.863Z,-1.30
2019-01-04T05:13:31.566Z,-1.30
2019-01-04T05:16:01.329Z,-1.30
2019-01-04T05:18:31.014Z,-1.30
2019-01-04T05:21:00.801Z,-1.30
2019-01-04T05:23:30.469Z,-1.30
2019-01-04T05:26:00.241Z,-1.40
2019-01-04T05:28:29.901Z,-1.40
2019-01-04T05:30:59.632Z,-1.40
2019-01-04T05:33:29.363Z,-1.40
2019-01-04T05:35:59.148Z,-1.40
2019-01-04T05:38:28.901Z,-1.40
2019-01-04T05:40:58.688Z,-1.40
2019-01-04T05:43:28.478Z,-1.30
2019-01-04T05:45:58.109Z,-1.30
2019-01-04T05:48:27.859Z,-1.30
2019-01-04T05:50:57.490Z,-1.30
2019-01-04T05:53:27.303Z,-1.30
2019-01-04T05:55:57.042Z,-1.30
2019-01-04T05:58:26.726Z,-1.30
2019-01-04T06:00:56.488Z,-1.30
2019-01-04T06:03:28.128Z,-1.30
2019-01-04T06:05:57.918Z,-1.30
2019-01-04T06:08:27.705Z,-1.30
2019-01-04T06:10:57.419Z,-1.30
2019-01-04T06:13:27.168Z,-1.20
2019-01-04T06:15:56.973Z,-1.30
2019-01-04T06:18:26.750Z,-1.20
2019-01-04T06:20:56.597Z,-1.20
2019-01-04T06:23:26.384Z,-1.20
2019-01-04T06:25:56.046Z,-1.20
2019-01-04T06:28:25.691Z,-1.20
2019-01-04T06:30:57.188Z,-1.20
2019-01-04T06:33:26.899Z,-1.20
2019-01-04T06:35:56.649Z,-1.20
2019-01-04T06:38:26.405Z,-1.20
2019-01-04T06:40:56.142Z,-1.20
2019-01-04T06:43:25.927Z,-1.20
2019-01-04T06:45:55.734Z,-1.10
2019-01-04T06:48:25.936Z,-1.10
2019-01-04T06:50:55.673Z,-1.00
2019-01-04T06:53:25.420Z,-1.00
2019-01-04T06:56:05.982Z,-1.00
2019-01-04T06:58:35.732Z,-1.00
2019-01-04T07:01:05.485Z,-0.90
2019-01-04T07:03:35.257Z,-0.90
2019-01-04T07:06:05.033Z,-0.90
2019-01-04T07:08:34.821Z,-0.90
2019-01-04T07:11:04.548Z,-0.80
2019-01-04T07:13:34.286Z,-0.80
2019-01-04T07:16:04.051Z,-0.80
2019-01-04T07:18:33.707Z,-0.80
2019-01-04T07:21:03.423Z,-0.80
2019-01-04T07:23:33.161Z,-0.80
2019-01-04T07:26:02.861Z,-0.80
2019-01-04T07:28:32.600Z,-0.90
2019-01-04T07:31:02.377Z,-0.90
2019-01-04T07:33:32.197Z,-0.90
2019-01-04T07:36:02.001Z,-0.80
2019-01-04T07:38:31.661Z,-0.80
2019-01-04T07:41:02.267Z,-0.80
2019-01-04T07:43:31.981Z,-0.80
2019-01-04T07:46:01.713Z,-0.70
2019-01-04T07:48:31.418Z,-0.70
2019-01-04T07:51:01.186Z,-0.60
2019-01-04T07:53:30.853Z,-0.60
2019-01-04T07:56:00.672Z,-0.50
2019-01-04T07:58:30.536Z,-0.40
2019-01-04T08:01:00.248Z,-0.40
2019-01-04T08:03:30.935Z,-0.30
2019-01-04T08:06:02.427Z,-0.30
2019-01-04T08:08:32.162Z,-0.30
2019-01-04T08:11:01.793Z,-0.30
2019-01-04T08:13:31.601Z,-0.30
2019-01-04T08:16:01.389Z,-0.30
2019-01-04T08:18:31.056Z,-0.30
2019-01-04T08:21:02.785Z,-0.30
2019-01-04T08:23:32.385Z,-0.20
2019-01-04T08:26:02.170Z,-0.20
2019-01-04T08:28:31.902Z,-0.10
2019-01-04T08:31:01.649Z,-0.10
2019-01-04T08:33:31.505Z,-0.10
2019-01-04T08:36:01.228Z,-0.20
2019-01-04T08:38:30.873Z,-0.20
2019-01-04T08:41:00.607Z,-0.30
2019-01-04T08:43:30.227Z,-0.30
2019-01-04T08:46:01.313Z,-0.30
2019-01-04T08:48:31.052Z,-0.30
2019-01-04T08:51:00.792Z,-0.30
2019-01-04T08:53:56.928Z,-0.20
2019-01-04T08:56:28.257Z,-0.20
2019-01-04T08:58:58.038Z,-0.20
2019-01-04T09:01:27.684Z,-0.10
2019-01-04T09:03:57.429Z,-0.10
2019-01-04T09:06:27.189Z,0.00
2019-01-04T09:08:56.990Z,0.00
2019-01-04T09:11:26.701Z,0.00
2019-01-04T09:13:56.421Z,0.10
2019-01-04T09:16:26.034Z,0.10
2019-01-04T09:18:56.205Z,0.10
2019-01-04T09:21:26.006Z,0.20
2019-01-04T09:23:55.805Z,0.20
2019-01-04T09:26:25.540Z,0.20
2019-01-04T09:28:55.284Z,0.20
2019-01-04T09:31:25.026Z,0.20
2019-01-04T09:33:54.784Z,0.30
2019-01-04T09:36:24.498Z,0.30
2019-01-04T09:38:54.273Z,0.30
2019-01-04T09:41:32.537Z,0.30
2019-01-04T09:44:02.361Z,0.30
2019-01-04T09:46:32.072Z,0.30
2019-01-04T09:49:01.752Z,0.30
2019-01-04T09:51:31.549Z,0.30
2019-01-04T09:54:01.250Z,0.30
2019-01-04T09:56:31.006Z,0.30
2019-01-04T09:59:00.753Z,0.40
2019-01-04T10:01:30.469Z,0.50
2019-01-04T10:04:00.181Z,0.60
2019-01-04T10:06:29.910Z,0.70
2019-01-04T10:08:59.741Z,0.80
2019-01-04T10:11:29.385Z,0.80
2019-01-04T10:13:59.392Z,0.90
2019-01-04T10:16:29.040Z,0.90
2019-01-04T10:18:58.697Z,0.90
2019-01-04T10:21:28.421Z,0.80
2019-01-04T10:23:58.074Z,0.80
2019-01-04T10:26:27.741Z,0.80
2019-01-04T10:28:57.481Z,0.80
2019-01-04T10:31:27.258Z,0.90
2019-01-04T10:33:56.980Z,0.90
2019-01-04T10:36:26.700Z,0.90
2019-01-04T10:38:56.499Z,0.90
2019-01-04T10:41:26.205Z,0.90
2019-01-04T10:43:55.925Z,0.90
2019-01-04T10:46:25.643Z,0.90
2019-01-04T10:48:55.358Z,1.00
2019-01-04T10:51:25.117Z,1.00
2019-01-04T10:53:54.828Z,1.00
2019-01-04T10:56:24.552Z,1.00
2019-01-04T10:58:54.254Z,1.00
2019-01-04T11:01:23.932Z,1.00
2019-01-04T11:03:53.670Z,1.00
2019-01-04T11:06:23.562Z,1.00
2019-01-04T11:08:53.284Z,1.10
2019-01-04T11:11:22.989Z,1.10
2019-01-04T11:13:52.674Z,1.10
2019-01-04T11:16:22.448Z,1.00
2019-01-04T11:18:52.151Z,1.10
2019-01-04T11:21:21.985Z,1.00
2019-01-04T11:24:39.513Z,1.00
2019-01-04T11:27:16.842Z,1.00
2019-01-04T11:30:23.008Z,1.00
2019-01-04T11:33:16.654Z,1.00
2019-01-04T11:36:37.239Z,1.00
2019-01-04T11:40:12.030Z,1.00
2019-01-04T11:43:30.538Z,1.00
2019-01-04T11:46:33.298Z,1.10
2019-01-04T11:49:33.303Z,1.00
2019-01-04T11:52:12.187Z,1.00
2019-01-04T11:54:42.039Z,0.90
2019-01-04T11:57:11.881Z,0.90
2019-01-04T11:59:41.573Z,0.80
2019-01-04T12:02:11.285Z,0.70
2019-01-04T12:04:40.940Z,0.60
2019-01-04T12:07:10.691Z,0.60
2019-01-04T12:09:40.509Z,0.60
2019-01-04T12:12:10.306Z,0.60
2019-01-04T12:14:41.530Z,0.60
2019-01-04T12:17:11.413Z,0.60
2019-01-04T12:19:41.101Z,0.50
2019-01-04T12:22:10.783Z,0.40
2019-01-04T12:24:40.485Z,0.40
2019-01-04T12:27:10.185Z,0.40
2019-01-04T12:29:39.945Z,0.30
2019-01-04T12:32:09.698Z,0.40
2019-01-04T12:34:39.493Z,0.40
2019-01-04T12:37:09.257Z,0.40
2019-01-04T12:39:38.985Z,0.40
2019-01-04T12:42:08.825Z,0.40
2019-01-04T12:44:38.515Z,0.40
2019-01-04T12:47:08.323Z,0.40
2019-01-04T12:49:38.043Z,0.40
2019-01-04T12:52:10.350Z,0.50
2019-01-04T12:54:40.054Z,0.50
2019-01-04T12:57:09.880Z,0.60
2019-01-04T12:59:39.666Z,0.60
2019-01-04T13:02:09.355Z,0.60
2019-01-04T13:04:39.081Z,0.70
2019-01-04T13:07:08.799Z,0.70
2019-01-04T13:09:38.590Z,0.60
2019-01-04T13:12:08.259Z,0.50
2019-01-04T13:14:37.999Z,0.50
2019-01-04T13:17:07.774Z,0.50
2019-01-04T13:19:37.469Z,0.50
2019-01-04T13:22:07.285Z,0.40
2019-01-04T13:24:37.032Z,0.30
2019-01-04T13:27:06.673Z,0.30
2019-01-04T13:29:36.529Z,0.30
2019-01-04T13:32:06.341Z,0.30
2019-01-04T13:34:36.142Z,0.30
2019-01-04T13:37:05.908Z,0.30
2019-01-04T13:39:35.709Z,0.20
2019-01-04T13:42:05.438Z,0.20
2019-01-04T13:44:35.155Z,0.10
2019-01-04T13:47:04.832Z,0.10
2019-01-04T13:49:34.583Z,0.00
2019-01-04T13:52:04.260Z,0.00
2019-01-04T13:54:33.900Z,-0.10
2019-01-04T13:57:03.645Z,-0.10
2019-01-04T13:59:33.337Z,-0.10
2019-01-04T14:02:03.044Z,-0.10
2019-01-04T14:04:32.765Z,-0.10
2019-01-04T14:07:04.124Z,0.00
2019-01-04T14:09:33.913Z,0.00
2019-01-04T14:12:03.593Z,0.00
2019-01-04T14:14:33.241Z,-0.10
2019-01-04T14:17:03.053Z,-0.10
2019-01-04T14:19:32.761Z,-0.10
2019-01-04T14:22:02.476Z,-0.10
2019-01-04T14:24:32.170Z,-0.10
2019-01-04T14:27:01.904Z,-0.10
2019-01-04T14:29:31.669Z,-0.10
2019-01-04T14:32:01.381Z,-0.10
2019-01-04T14:34:31.119Z,-0.10
2019-01-04T14:37:00.905Z,-0.10
2019-01-04T14:39:30.672Z,-0.10
2019-01-04T14:42:00.411Z,-0.10
2019-01-04T14:44:30.053Z,0.00
2019-01-04T14:46:59.774Z,-0.10
2019-01-04T14:49:29.457Z,0.00
2019-01-04T14:51:59.157Z,0.00
2019-01-04T14:54:28.934Z,0.00
2019-01-04T14:56:58.617Z,0.00
2019-01-04T14:59:28.342Z,0.00
2019-01-04T15:01:57.989Z,0.10
2019-01-04T15:04:27.665Z,0.10
2019-01-04T15:06:57.417Z,0.10
2019-01-04T15:09:27.149Z,0.10
2019-01-04T15:11:57.010Z,0.10
2019-01-04T15:14:26.680Z,0.10
2019-01-04T15:16:56.433Z,0.10
2019-01-04T15:19:26.169Z,0.10
2019-01-04T15:21:55.784Z,0.00
2019-01-04T15:24:25.513Z,0.00
2019-01-04T15:26:55.199Z,0.10
2019-01-04T15:29:24.955Z,0.10
2019-01-04T15:31:54.766Z,0.10
2019-01-04T15:34:24.522Z,0.10
2019-01-04T15:36:54.305Z,0.20
2019-01-04T15:39:24.434Z,0.20
2019-01-04T15:41:54.191Z,0.20
2019-01-04T15:44:23.918Z,0.20
2019-01-04T15:46:53.669Z,0.20
2019-01-04T15:49:23.369Z,0.20
2019-01-04T15:51:53.125Z,0.20
2019-01-04T15:54:22.881Z,0.20
2019-01-04T15:56:52.522Z,0.30
2019-01-04T15:59:22.222Z,0.20
2019-01-04T16:01:51.949Z,0.20
2019-01-04T16:04:21.709Z,0.20
2019-01-04T16:06:51.547Z,0.30
2019-01-04T16:09:21.245Z,0.30
2019-01-04T16:11:51.024Z,0.30
2019-01-04T16:14:20.800Z,0.30
2019-01-04T16:16:50.561Z,0.20
2019-01-04T16:19:20.340Z,0.30
2019-01-04T16:21:50.170Z,0.30
2019-01-04T16:24:19.926Z,0.30
2019-01-04T16:26:49.703Z,0.20
2019-01-04T16:29:19.444Z,0.20
2019-01-04T16:31:49.186Z,0.20
2019-01-04T16:34:19.006Z,0.20
2019-01-04T16:36:48.777Z,0.30
2019-01-04T16:39:18.591Z,0.30
2019-01-04T16:41:48.317Z,0.30
2019-01-04T16:44:18.033Z,0.30
2019-01-04T16:46:47.766Z,0.30
2019-01-04T16:49:17.601Z,0.30
2019-01-04T16:51:47.292Z,0.30
2019-01-04T16:54:17.278Z,0.30
2019-01-04T16:56:47.227Z,0.40
2019-01-04T16:59:16.909Z,0.40
2019-01-04T17:01:46.726Z,0.40
2019-01-04T17:04:16.529Z,0.40
2019-01-04T17:06:46.278Z,0.50
2019-01-04T17:09:16.033Z,0.50
2019-01-04T17:11:47.497Z,0.50
2019-01-04T17:14:17.302Z,0.50
2019-01-04T17:16:47.061Z,0.40
2019-01-04T17:19:16.862Z,0.50
2019-01-04T17:21:46.674Z,0.50
2019-01-04T17:24:16.378Z,0.50
2019-01-04T17:26:46.159Z,0.60
2019-01-04T17:29:17.123Z,0.50
2019-01-04T17:31:46.921Z,0.50
2019-01-04T17:34:16.657Z,0.50
2019-01-04T17:36:46.420Z,0.60
2019-01-04T17:39:16.203Z,0.60
2019-01-04T17:41:46.026Z,0.50
2019-01-04T17:44:15.830Z,0.60
2019-01-04T17:46:45.574Z,0.60
2019-01-04T17:49:17.721Z,0.60
2019-01-04T17:51:47.450Z,0.60
2019-01-04T17:54:17.299Z,0.60
2019-01-04T17:56:47.050Z,0.60
2019-01-04T17:59:16.717Z,0.60
2019-01-04T18:01:46.449Z,0.60
2019-01-04T18:04:16.237Z,0.50
2019-01-04T18:06:46.086Z,0.50
2019-01-04T18:09:15.846Z,0.50
2019-01-04T18:11:45.635Z,0.60
2019-01-04T18:14:15.373Z,0.60
2019-01-04T18:16:45.133Z,0.50
2019-01-04T18:19:14.866Z,0.50
2019-01-04T18:21:44.654Z,0.50
2019-01-04T18:24:14.377Z,0.50
2019-01-04T18:26:44.156Z,0.40
2019-01-04T18:29:13.882Z,0.50
2019-01-04T18:31:43.652Z,0.50
2019-01-04T18:34:13.462Z,0.50
2019-01-04T18:36:43.298Z,0.50
2019-01-04T18:39:13.088Z,0.40
2019-01-04T18:41:42.853Z,0.50
2019-01-04T18:44:12.930Z,0.50
2019-01-04T18:46:42.760Z,0.50
2019-01-04T18:49:12.557Z,0.50
2019-01-04T18:51:42.381Z,0.50
2019-01-04T18:54:12.091Z,0.50
2019-01-04T18:56:41.921Z,0.50
2019-01-04T18:59:12.520Z,0.40
2019-01-04T19:01:42.318Z,0.50
2019-01-04T19:04:12.130Z,0.50
2019-01-04T19:06:41.910Z,0.50
2019-01-04T19:09:11.644Z,0.50
2019-01-04T19:11:41.400Z,0.50
2019-01-04T19:14:11.161Z,0.50
2019-01-04T19:16:40.883Z,0.50
2019-01-04T19:19:10.613Z,0.50
2019-01-04T19:21:41.779Z,0.50
2019-01-04T19:24:11.701Z,0.50
2019-01-04T19:26:41.385Z,0.50
2019-01-04T19:29:11.165Z,0.40
2019-01-04T19:31:40.894Z,0.50
2019-01-04T19:34:10.627Z,0.50
2019-01-04T19:36:40.401Z,0.50
2019-01-04T19:39:10.756Z,0.50
2019-01-04T19:41:40.481Z,0.50
2019-01-04T19:44:10.286Z,0.40
2019-01-04T19:46:39.993Z,0.50
2019-01-04T19:49:09.814Z,0.50
2019-01-04T19:51:39.566Z,0.50
2019-01-04T19:54:09.409Z,0.50
2019-01-04T19:56:40.369Z,0.50
2019-01-04T19:59:10.156Z,0.50
2019-01-04T20:01:39.918Z,0.50
2019-01-04T20:04:09.643Z,0.50
2019-01-04T20:07:17.229Z,0.50
2019-01-04T20:10:58.044Z,0.50
2019-01-04T20:14:21.027Z,0.60
2019-01-04T20:17:18.718Z,0.60
2019-01-04T20:20:10.341Z,0.60
2019-01-04T20:22:57.565Z,0.50
2019-01-04T20:25:49.025Z,0.50
2019-01-04T20:28:43.673Z,0.50
2019-01-04T20:31:38.282Z,0.60
2019-01-04T20:34:25.493Z,0.60
2019-01-04T20:37:12.824Z,0.60
2019-01-04T20:39:59.992Z,0.60
2019-01-04T20:42:51.401Z,0.60
2019-01-04T20:45:30.652Z,0.50
2019-01-04T20:48:28.745Z,0.60
2019-01-04T20:51:16.201Z,0.60
2019-01-04T20:54:03.546Z,0.60
2019-01-04T20:56:50.740Z,0.60
2019-01-04T20:59:45.299Z,0.60
2019-01-04T21:02:49.024Z,0.60
2019-01-04T21:05:47.421Z,0.60
2019-01-04T21:08:39.273Z,0.60
2019-01-04T21:11:33.699Z,0.60
2019-01-04T21:14:22.582Z,0.60
2019-01-04T21:17:18.728Z,0.60
2019-01-04T21:20:03.581Z,0.60
2019-01-04T21:22:50.941Z,0.60
2019-01-04T21:25:34.950Z,0.60
2019-01-04T21:28:22.085Z,0.60
2019-01-04T21:31:15.908Z,0.60
2019-01-04T21:34:07.927Z,0.60
2019-01-04T21:37:02.297Z,0.60
2019-01-04T21:39:49.633Z,0.70
2019-01-04T21:42:36.910Z,0.70
2019-01-04T21:45:28.758Z,0.70
2019-01-04T21:48:17.289Z,0.70
2019-01-04T21:51:04.373Z,0.70
2019-01-04T21:54:11.274Z,0.70
2019-01-04T21:57:14.813Z,0.70
2019-01-04T22:00:02.386Z,0.70
2019-01-04T22:02:49.478Z,0.70
2019-01-04T22:05:36.791Z,0.70
2019-01-04T22:08:32.162Z,0.70
2019-01-04T22:11:20.701Z,0.70
2019-01-04T22:14:08.154Z,0.70
2019-01-04T22:16:55.393Z,0.70
2019-01-04T22:20:02.455Z,0.70
2019-01-04T22:22:49.484Z,0.70
2019-01-04T22:25:36.915Z,0.70
2019-01-04T22:28:33.998Z,0.80
2019-01-04T22:31:28.361Z,0.80
2019-01-04T22:34:15.692Z,0.70
2019-01-04T22:37:05.230Z,0.80
2019-01-04T22:39:57.098Z,0.80
2019-01-04T22:43:01.098Z,0.80
2019-01-04T22:45:52.407Z,0.80
2019-01-04T22:48:39.721Z,0.80
2019-01-04T22:51:26.914Z,0.80
2019-01-04T22:54:14.345Z,0.80
2019-01-04T22:57:02.945Z,0.80
2019-01-04T22:59:51.611Z,0.80
2019-01-04T23:02:58.593Z,0.80
2019-01-04T23:05:56.256Z,0.80
2019-01-04T23:08:47.453Z,0.80
2019-01-04T23:11:54.152Z,0.90
2019-01-04T23:14:41.469Z,0.90
2019-01-04T23:17:30.098Z,0.90
2019-01-04T23:20:17.935Z,0.90
2019-01-04T23:23:12.525Z,0.90
2019-01-04T23:26:13.155Z,0.90
2019-01-04T23:29:00.241Z,0.90
2019-01-04T23:31:47.637Z,0.90
2019-01-04T23:34:34.865Z,1.00
2019-01-04T23:37:23.442Z,1.00
2019-01-04T23:40:15.805Z,1.00
2019-01-04T23:43:03.210Z,1.00
2019-01-04T23:45:54.702Z,1.00
2019-01-04T23:48:46.513Z,1.00
2019-01-04T23:51:34.115Z,1.00
2019-01-04T23:54:30.901Z,1.00
2019-01-04T23:57:28.482Z,1.00
